Powell River, British Columbia

Past 24 Hour Conditions

This table is a summary of hourly weather conditions for the past 24 hours. This summary includes the following parameters: temperature, humidity, dew point, wind speed and direction, air pressure, visibility and/or wind chill and humidex.
Date / Time
(PDT)
Conditions Temp (°F) Humidity (%) Dew Point (°F) Wind (mph) Pressure (inches) Visibility (miles)
22 July 2014
4:00 N/A 56 85 52 N/A 30.0 N/A
3:00 N/A 56 78 50 N/A 30.0 N/A
2:00 N/A 58 75 50 N/A 30.0 N/A
1:00 N/A 58 73 49 N/A 30.0 N/A
00:00 N/A 58 72 49 N/A 30.0 N/A
21 July 2014
23:00 N/A 60 65 49 N/A 30.0 N/A
22:00 N/A 62 63 50 N/A 30.0 N/A
21:00 N/A 63 64 51 N/A 29.9 N/A
20:00 N/A 67 49 47 N/A 29.9 N/A
19:00 N/A 69 49 48 N/A 30.0 N/A
18:00 N/A 68 53 50 N/A 30.0 N/A
17:00 N/A 69 52 50 N/A 30.0 N/A
16:00 N/A 70 52 52 N/A 30.0 N/A
15:00 N/A 71   49 51 N/A 30.0 N/A
14:00 N/A 68 58 53 N/A 30.0 N/A
13:00 N/A 67 60 53 N/A 30.0 N/A
12:00 N/A 63 74 55 N/A 30.0 N/A
11:00 N/A 65 70 55 N/A 30.0 N/A
10:00 N/A 62 79 55 N/A 30.0 N/A
9:00 N/A 62 77 55 N/A 30.0 N/A
8:00 N/A 58 91 56 N/A 30.0 N/A
7:00 N/A 54 95 53 N/A 30.0 N/A
6:00 N/A 53   95 51 N/A 30.0 N/A
5:00 N/A 54 94 52 N/A 30.0 N/A
4:00 N/A 54 95 53 N/A 30.0 N/A
N/A
Not available
 ↑ 
Highest temperature
 ↓ 
Lowest temperature

If you require additional historical weather information, please visit Climate Data Online.